Terminal Aerodrome Forecast
Issued by NWS

Home | Current Version | Previous Version | Text Only | Print | Product List | Glossary On
Versions: 1 2 3 4 5 6 7 8 9 10 11 12 13 14 15 16
000
FTUS43 KSGF 231400 AAA
TAFJLN
TAF AMD
KJLN 231403Z 2314/2412 36005KT P6SM SCT050 SCT120
      TEMPO 2314/2316 5SM BR BKN010
     FM231800 02010KT P6SM SCT050
     FM240200 05005KT P6SM SKC=

USA.gov is the U.S. government's official web portal to all federal, state and local government web resources and services.